LICC Airport Information

Runway Information
Runway 08 Length 7989 ft width 148 ft
Elevation 37 ft Threshold 312 ft Heading 84
Runway 26 Length 7989 ft Width 148 ft
Elevation 17 ft Threshold 279 ft Heading 264
Airport Frequencies
Type APP Name APP Frequency 119.25 MHZ
Type DIR Name DIRECTOR Frequency 120.8 MHZ
Type GND Name GND Frequency 129.725 MHZ
Type TWR Name TWR Frequency 118.7 MHZ
Airport Navaids
Type NDB Name Catania Frequency 345 KHZ
Type VOR-DME Name Catania Fontanarossa Frequency 116250 KHZ
Type NDB Name Catania Fontanarossa Frequency 407 KHZ
Airport Weather Information & NOTAM
ADDS - METARS form results

(1800 UTC 07 August 2020)
Data provider http://aviationweather.gov/metar/data/
 
METAR text: LICC 071750Z 09005KT 9999 SCT080 27/20 Q1014
Conditions at: LICC (CATANIA/FONTANAR, IT) observed 1750 UTC 07 August 2020
Temperature: 27.0°C (81°F)
Dewpoint: 20.0°C (68°F) [RH = 66%]
Pressure (altimeter): 29.94 inches Hg (1014.0 mb)
Winds: from the E (90 degrees) at 6 MPH (5 knots; 2.6 m/s)
Visibility: 6 or more miles (10+ km)
Ceiling: at least 12,000 feet AGL
Clouds: scattered clouds at 8000 feet AGL
Weather: no significant weather observed at this time

METAR text: LICC 071720Z 08006KT 9999 SCT070 27/20 Q1014
Conditions at: LICC (CATANIA/FONTANAR, IT) observed 1720 UTC 07 August 2020
Temperature: 27.0°C (81°F)
Dewpoint: 20.0°C (68°F) [RH = 66%]
Pressure (altimeter): 29.94 inches Hg (1014.0 mb)
Winds: from the E (80 degrees) at 7 MPH (6 knots; 3.1 m/s)
Visibility: 6 or more miles (10+ km)
Ceiling: at least 12,000 feet AGL
Clouds: scattered clouds at 7000 feet AGL
Weather: no significant weather observed at this time

Forecast for: LICC (CATANIA/FONTANAR, IT)
Text: TAF LICC 071700Z 0718/0818 VRB05KT 9999 FEW030
Forecast period: 1800 UTC 07 August 2020 to 0800 UTC 08 August 2020
Forecast type: FROM: standard forecast or significant change
Winds: variable direction winds at 6 MPH (5 knots; 2.6 m/s)
Visibility: 6 or more miles (10+ km)
Ceiling: at least 12,000 feet AGL
Clouds: few clouds at 3000 feet AGL
Weather: no significant weather forecast for this period
Text: BECMG 0808/0810 09012KT
Forecast period: 0800 to 1800 UTC 08 August 2020
Forecast type: BECOMING: Conditions expected to become as follows by 1000 UTC 08 August 2020
Winds: from the E (90 degrees) at 14 MPH (12 knots; 6.2 m/s)
Visibility: 6 or more miles (10+ km)
Ceiling: at least 12,000 feet AGL
Clouds: few clouds at 3000 feet AGL
Weather: no significant weather forecast for this period